sensor_id;sensor_type;location;lat;lon;timestamp;P1;durP1;ratioP1;P2;durP2;ratioP2
24421;SDS011;12600;53.326;-6.298;2023-11-18T00:00:15;1.60;;;0.60;;
24421;SDS011;12600;53.326;-6.298;2023-11-18T00:03:05;1.92;;;0.80;;
24421;SDS011;12600;53.326;-6.298;2023-11-18T00:05:56;2.90;;;0.98;;
24421;SDS011;12600;53.326;-6.298;2023-11-18T00:08:47;3.17;;;0.90;;
24421;SDS011;12600;53.326;-6.298;2023-11-18T00:11:36;1.83;;;1.00;;
24421;SDS011;12600;53.326;-6.298;2023-11-18T00:14:26;1.88;;;1.00;;
24421;SDS011;12600;53.326;-6.298;2023-11-18T00:17:15;2.33;;;1.40;;
24421;SDS011;12600;53.326;-6.298;2023-11-18T00:20:05;2.20;;;0.95;;
24421;SDS011;12600;53.326;-6.298;2023-11-18T00:23:01;2.75;;;1.33;;
24421;SDS011;12600;53.326;-6.298;2023-11-18T00:25:52;1.75;;;0.82;;
24421;SDS011;12600;53.326;-6.298;2023-11-18T00:28:41;2.65;;;0.90;;
24421;SDS011;12600;53.326;-6.298;2023-11-18T00:31:30;1.58;;;0.85;;
24421;SDS011;12600;53.326;-6.298;2023-11-18T00:34:20;1.48;;;0.80;;
24421;SDS011;12600;53.326;-6.298;2023-11-18T00:37:11;2.13;;;0.88;;
24421;SDS011;12600;53.326;-6.298;2023-11-18T00:40:02;1.73;;;0.73;;
24421;SDS011;12600;53.326;-6.298;2023-11-18T00:42:54;1.88;;;0.90;;
24421;SDS011;12600;53.326;-6.298;2023-11-18T00:45:44;2.38;;;1.10;;
24421;SDS011;12600;53.326;-6.298;2023-11-18T00:48:34;2.92;;;0.90;;
24421;SDS011;12600;53.326;-6.298;2023-11-18T00:51:23;1.77;;;0.98;;
24421;SDS011;12600;53.326;-6.298;2023-11-18T00:54:14;3.50;;;1.48;;
24421;SDS011;12600;53.326;-6.298;2023-11-18T00:57:05;2.97;;;1.20;;
24421;SDS011;12600;53.326;-6.298;2023-11-18T00:59:55;2.35;;;1.15;;
24421;SDS011;12600;53.326;-6.298;2023-11-18T01:02:45;2.53;;;1.08;;
24421;SDS011;12600;53.326;-6.298;2023-11-18T01:05:35;1.75;;;0.98;;
24421;SDS011;12600;53.326;-6.298;2023-11-18T01:08:26;2.55;;;1.23;;
24421;SDS011;12600;53.326;-6.298;2023-11-18T01:11:15;3.97;;;1.23;;
24421;SDS011;12600;53.326;-6.298;2023-11-18T01:14:08;1.92;;;1.00;;
24421;SDS011;12600;53.326;-6.298;2023-11-18T01:16:59;3.30;;;1.00;;
24421;SDS011;12600;53.326;-6.298;2023-11-18T01:19:48;2.30;;;1.00;;
24421;SDS011;12600;53.326;-6.298;2023-11-18T01:22:37;2.00;;;1.30;;
24421;SDS011;12600;53.326;-6.298;2023-11-18T01:25:29;2.95;;;1.35;;
24421;SDS011;12600;53.326;-6.298;2023-11-18T01:28:18;5.22;;;2.60;;
24421;SDS011;12600;53.326;-6.298;2023-11-18T01:31:09;8.65;;;2.95;;
24421;SDS011;12600;53.326;-6.298;2023-11-18T01:33:59;4.15;;;1.80;;
24421;SDS011;12600;53.326;-6.298;2023-11-18T01:36:48;6.20;;;2.20;;
24421;SDS011;12600;53.326;-6.298;2023-11-18T01:39:38;3.80;;;2.00;;
24421;SDS011;12600;53.326;-6.298;2023-11-18T01:42:27;6.22;;;3.22;;
24421;SDS011;12600;53.326;-6.298;2023-11-18T01:45:18;3.28;;;1.70;;
24421;SDS011;12600;53.326;-6.298;2023-11-18T01:48:08;2.78;;;1.90;;
24421;SDS011;12600;53.326;-6.298;2023-11-18T01:50:59;4.18;;;2.80;;
24421;SDS011;12600;53.326;-6.298;2023-11-18T01:53:52;4.25;;;2.38;;
24421;SDS011;12600;53.326;-6.298;2023-11-18T01:56:43;3.55;;;2.33;;
24421;SDS011;12600;53.326;-6.298;2023-11-18T01:59:34;5.25;;;2.50;;
24421;SDS011;12600;53.326;-6.298;2023-11-18T02:02:25;4.93;;;2.08;;
24421;SDS011;12600;53.326;-6.298;2023-11-18T02:05:16;5.68;;;2.20;;
24421;SDS011;12600;53.326;-6.298;2023-11-18T02:08:06;2.30;;;1.13;;
24421;SDS011;12600;53.326;-6.298;2023-11-18T02:10:57;3.50;;;1.33;;
24421;SDS011;12600;53.326;-6.298;2023-11-18T02:14:00;3.25;;;1.20;;
24421;SDS011;12600;53.326;-6.298;2023-11-18T02:16:51;0.98;;;0.68;;
24421;SDS011;12600;53.326;-6.298;2023-11-18T02:19:43;1.17;;;0.77;;
24421;SDS011;12600;53.326;-6.298;2023-11-18T02:22:35;1.80;;;0.80;;
24421;SDS011;12600;53.326;-6.298;2023-11-18T02:25:25;1.88;;;1.10;;
24421;SDS011;12600;53.326;-6.298;2023-11-18T02:28:19;2.45;;;1.20;;
24421;SDS011;12600;53.326;-6.298;2023-11-18T02:31:09;1.50;;;0.90;;
24421;SDS011;12600;53.326;-6.298;2023-11-18T02:34:05;1.30;;;0.90;;
24421;SDS011;12600;53.326;-6.298;2023-11-18T02:37:03;1.63;;;0.70;;
24421;SDS011;12600;53.326;-6.298;2023-11-18T02:39:56;1.35;;;0.90;;
24421;SDS011;12600;53.326;-6.298;2023-11-18T02:42:55;2.17;;;1.10;;
24421;SDS011;12600;53.326;-6.298;2023-11-18T02:45:49;1.45;;;0.95;;
24421;SDS011;12600;53.326;-6.298;2023-11-18T02:48:42;2.00;;;0.82;;
24421;SDS011;12600;53.326;-6.298;2023-11-18T02:51:33;1.55;;;0.98;;
24421;SDS011;12600;53.326;-6.298;2023-11-18T02:54:26;1.60;;;0.93;;
24421;SDS011;12600;53.326;-6.298;2023-11-18T02:57:18;1.75;;;1.00;;
24421;SDS011;12600;53.326;-6.298;2023-11-18T03:00:08;1.98;;;0.93;;
24421;SDS011;12600;53.326;-6.298;2023-11-18T03:03:00;1.40;;;0.82;;
24421;SDS011;12600;53.326;-6.298;2023-11-18T03:05:50;1.27;;;0.80;;
24421;SDS011;12600;53.326;-6.298;2023-11-18T03:08:40;1.55;;;0.80;;
24421;SDS011;12600;53.326;-6.298;2023-11-18T03:11:29;1.67;;;0.80;;
24421;SDS011;12600;53.326;-6.298;2023-11-18T03:14:20;1.40;;;0.90;;
24421;SDS011;12600;53.326;-6.298;2023-11-18T03:17:10;2.05;;;0.77;;
24421;SDS011;12600;53.326;-6.298;2023-11-18T03:20:02;2.35;;;0.90;;
24421;SDS011;12600;53.326;-6.298;2023-11-18T03:22:52;1.50;;;0.73;;
24421;SDS011;12600;53.326;-6.298;2023-11-18T03:25:42;1.58;;;0.90;;
24421;SDS011;12600;53.326;-6.298;2023-11-18T03:28:33;1.30;;;0.80;;
24421;SDS011;12600;53.326;-6.298;2023-11-18T03:31:23;1.73;;;1.13;;
24421;SDS011;12600;53.326;-6.298;2023-11-18T03:34:13;2.85;;;1.00;;
24421;SDS011;12600;53.326;-6.298;2023-11-18T03:37:04;1.10;;;0.80;;
24421;SDS011;12600;53.326;-6.298;2023-11-18T03:39:53;1.48;;;1.00;;
24421;SDS011;12600;53.326;-6.298;2023-11-18T03:42:42;1.40;;;0.90;;
24421;SDS011;12600;53.326;-6.298;2023-11-18T03:45:33;2.20;;;0.90;;
24421;SDS011;12600;53.326;-6.298;2023-11-18T03:48:23;1.38;;;0.90;;
24421;SDS011;12600;53.326;-6.298;2023-11-18T03:51:12;3.45;;;1.00;;
24421;SDS011;12600;53.326;-6.298;2023-11-18T03:54:05;1.27;;;0.70;;
24421;SDS011;12600;53.326;-6.298;2023-11-18T03:56:55;1.42;;;0.80;;
24421;SDS011;12600;53.326;-6.298;2023-11-18T03:59:45;1.77;;;0.90;;
24421;SDS011;12600;53.326;-6.298;2023-11-18T04:02:34;1.45;;;0.90;;
24421;SDS011;12600;53.326;-6.298;2023-11-18T04:05:25;2.03;;;1.00;;
24421;SDS011;12600;53.326;-6.298;2023-11-18T04:08:14;1.42;;;0.90;;
24421;SDS011;12600;53.326;-6.298;2023-11-18T04:11:06;1.83;;;0.93;;
24421;SDS011;12600;53.326;-6.298;2023-11-18T04:13:55;2.10;;;1.00;;
24421;SDS011;12600;53.326;-6.298;2023-11-18T04:16:44;1.63;;;1.00;;
24421;SDS011;12600;53.326;-6.298;2023-11-18T04:19:34;1.63;;;1.00;;
24421;SDS011;12600;53.326;-6.298;2023-11-18T04:22:24;1.58;;;1.00;;
24421;SDS011;12600;53.326;-6.298;2023-11-18T04:25:14;1.58;;;0.98;;
24421;SDS011;12600;53.326;-6.298;2023-11-18T04:28:05;1.67;;;1.02;;
24421;SDS011;12600;53.326;-6.298;2023-11-18T04:30:55;2.42;;;1.13;;
24421;SDS011;12600;53.326;-6.298;2023-11-18T04:33:45;2.88;;;1.20;;
24421;SDS011;12600;53.326;-6.298;2023-11-18T04:36:35;2.00;;;1.10;;
24421;SDS011;12600;53.326;-6.298;2023-11-18T04:39:24;1.52;;;1.00;;
24421;SDS011;12600;53.326;-6.298;2023-11-18T04:42:15;2.28;;;0.98;;
24421;SDS011;12600;53.326;-6.298;2023-11-18T04:45:07;2.50;;;1.20;;
24421;SDS011;12600;53.326;-6.298;2023-11-18T04:47:57;1.92;;;0.98;;
24421;SDS011;12600;53.326;-6.298;2023-11-18T04:50:48;1.92;;;1.10;;
24421;SDS011;12600;53.326;-6.298;2023-11-18T04:53:37;3.35;;;1.15;;
24421;SDS011;12600;53.326;-6.298;2023-11-18T04:56:27;3.30;;;1.20;;
24421;SDS011;12600;53.326;-6.298;2023-11-18T04:59:17;4.50;;;1.48;;
24421;SDS011;12600;53.326;-6.298;2023-11-18T05:02:08;3.70;;;1.30;;
24421;SDS011;12600;53.326;-6.298;2023-11-18T05:04:57;4.75;;;1.30;;
24421;SDS011;12600;53.326;-6.298;2023-11-18T05:07:47;4.15;;;1.20;;
24421;SDS011;12600;53.326;-6.298;2023-11-18T05:10:36;3.38;;;1.10;;
24421;SDS011;12600;53.326;-6.298;2023-11-18T05:13:25;3.33;;;1.10;;
24421;SDS011;12600;53.326;-6.298;2023-11-18T05:16:16;1.58;;;0.90;;
24421;SDS011;12600;53.326;-6.298;2023-11-18T05:19:07;1.75;;;0.90;;
24421;SDS011;12600;53.326;-6.298;2023-11-18T05:21:57;2.55;;;0.93;;
24421;SDS011;12600;53.326;-6.298;2023-11-18T05:24:47;2.38;;;1.05;;
24421;SDS011;12600;53.326;-6.298;2023-11-18T05:27:36;3.85;;;1.10;;
24421;SDS011;12600;53.326;-6.298;2023-11-18T05:30:27;4.25;;;1.20;;
24421;SDS011;12600;53.326;-6.298;2023-11-18T05:33:18;4.47;;;1.30;;
24421;SDS011;12600;53.326;-6.298;2023-11-18T05:36:09;6.50;;;1.17;;
24421;SDS011;12600;53.326;-6.298;2023-11-18T05:38:58;4.70;;;1.20;;
24421;SDS011;12600;53.326;-6.298;2023-11-18T05:41:48;5.57;;;1.50;;
24421;SDS011;12600;53.326;-6.298;2023-11-18T05:44:38;4.80;;;1.33;;
24421;SDS011;12600;53.326;-6.298;2023-11-18T05:47:29;8.60;;;1.60;;
24421;SDS011;12600;53.326;-6.298;2023-11-18T05:50:19;13.40;;;1.88;;
24421;SDS011;12600;53.326;-6.298;2023-11-18T05:53:10;8.75;;;1.75;;
24421;SDS011;12600;53.326;-6.298;2023-11-18T05:56:00;8.40;;;1.65;;
24421;SDS011;12600;53.326;-6.298;2023-11-18T05:58:50;12.38;;;1.70;;
24421;SDS011;12600;53.326;-6.298;2023-11-18T06:01:41;9.02;;;1.73;;
24421;SDS011;12600;53.326;-6.298;2023-11-18T06:04:31;8.82;;;1.90;;
24421;SDS011;12600;53.326;-6.298;2023-11-18T06:07:20;7.75;;;1.83;;
24421;SDS011;12600;53.326;-6.298;2023-11-18T06:10:11;10.15;;;1.77;;
24421;SDS011;12600;53.326;-6.298;2023-11-18T06:13:00;8.85;;;1.95;;
24421;SDS011;12600;53.326;-6.298;2023-11-18T06:15:51;11.65;;;2.05;;
24421;SDS011;12600;53.326;-6.298;2023-11-18T06:18:41;11.63;;;2.10;;
24421;SDS011;12600;53.326;-6.298;2023-11-18T06:21:32;13.15;;;2.10;;
24421;SDS011;12600;53.326;-6.298;2023-11-18T06:24:22;11.55;;;1.90;;
24421;SDS011;12600;53.326;-6.298;2023-11-18T06:27:13;12.02;;;2.50;;
24421;SDS011;12600;53.326;-6.298;2023-11-18T06:30:03;12.95;;;2.15;;
24421;SDS011;12600;53.326;-6.298;2023-11-18T06:32:54;16.08;;;2.42;;
24421;SDS011;12600;53.326;-6.298;2023-11-18T06:35:43;16.17;;;2.30;;
24421;SDS011;12600;53.326;-6.298;2023-11-18T06:38:33;18.63;;;2.90;;
24421;SDS011;12600;53.326;-6.298;2023-11-18T06:41:23;18.70;;;2.80;;
24421;SDS011;12600;53.326;-6.298;2023-11-18T06:44:22;13.38;;;2.33;;
24421;SDS011;12600;53.326;-6.298;2023-11-18T06:47:12;13.68;;;2.10;;
24421;SDS011;12600;53.326;-6.298;2023-11-18T06:50:04;16.98;;;2.63;;
24421;SDS011;12600;53.326;-6.298;2023-11-18T06:52:55;15.40;;;2.55;;
24421;SDS011;12600;53.326;-6.298;2023-11-18T06:55:45;11.73;;;1.95;;
24421;SDS011;12600;53.326;-6.298;2023-11-18T06:58:36;16.75;;;3.00;;
24421;SDS011;12600;53.326;-6.298;2023-11-18T07:01:28;16.95;;;2.50;;
24421;SDS011;12600;53.326;-6.298;2023-11-18T07:04:18;16.45;;;2.42;;
24421;SDS011;12600;53.326;-6.298;2023-11-18T07:07:07;13.13;;;2.40;;
24421;SDS011;12600;53.326;-6.298;2023-11-18T07:09:57;19.15;;;2.47;;
24421;SDS011;12600;53.326;-6.298;2023-11-18T07:12:47;22.35;;;2.38;;
24421;SDS011;12600;53.326;-6.298;2023-11-18T07:15:37;18.02;;;2.40;;
24421;SDS011;12600;53.326;-6.298;2023-11-18T07:18:28;19.42;;;3.20;;
24421;SDS011;12600;53.326;-6.298;2023-11-18T07:21:21;16.98;;;2.63;;
24421;SDS011;12600;53.326;-6.298;2023-11-18T07:24:11;15.40;;;2.40;;
24421;SDS011;12600;53.326;-6.298;2023-11-18T07:27:01;15.63;;;2.38;;
24421;SDS011;12600;53.326;-6.298;2023-11-18T07:29:52;18.17;;;2.50;;
24421;SDS011;12600;53.326;-6.298;2023-11-18T07:32:45;19.83;;;2.67;;
24421;SDS011;12600;53.326;-6.298;2023-11-18T07:35:36;18.75;;;2.95;;
24421;SDS011;12600;53.326;-6.298;2023-11-18T07:38:26;17.55;;;2.70;;
24421;SDS011;12600;53.326;-6.298;2023-11-18T07:41:16;18.05;;;2.95;;
24421;SDS011;12600;53.326;-6.298;2023-11-18T07:44:11;16.08;;;3.38;;
24421;SDS011;12600;53.326;-6.298;2023-11-18T07:47:01;14.95;;;2.80;;
24421;SDS011;12600;53.326;-6.298;2023-11-18T07:49:52;20.35;;;2.88;;
24421;SDS011;12600;53.326;-6.298;2023-11-18T07:52:44;15.77;;;2.47;;
24421;SDS011;12600;53.326;-6.298;2023-11-18T07:55:34;18.13;;;2.92;;
24421;SDS011;12600;53.326;-6.298;2023-11-18T07:58:26;18.33;;;3.20;;
24421;SDS011;12600;53.326;-6.298;2023-11-18T08:01:16;21.70;;;3.38;;
24421;SDS011;12600;53.326;-6.298;2023-11-18T08:04:06;19.58;;;3.20;;
24421;SDS011;12600;53.326;-6.298;2023-11-18T08:06:56;24.35;;;3.00;;
24421;SDS011;12600;53.326;-6.298;2023-11-18T08:09:48;25.85;;;3.60;;
24421;SDS011;12600;53.326;-6.298;2023-11-18T08:12:37;19.83;;;2.80;;
24421;SDS011;12600;53.326;-6.298;2023-11-18T08:15:27;21.15;;;3.45;;
24421;SDS011;12600;53.326;-6.298;2023-11-18T08:18:18;18.17;;;2.58;;
24421;SDS011;12600;53.326;-6.298;2023-11-18T08:21:08;17.52;;;2.97;;
24421;SDS011;12600;53.326;-6.298;2023-11-18T08:23:59;21.63;;;2.92;;
24421;SDS011;12600;53.326;-6.298;2023-11-18T08:26:52;16.95;;;2.60;;
24421;SDS011;12600;53.326;-6.298;2023-11-18T08:29:42;16.88;;;2.63;;
24421;SDS011;12600;53.326;-6.298;2023-11-18T08:32:33;22.10;;;3.00;;
24421;SDS011;12600;53.326;-6.298;2023-11-18T08:35:23;21.63;;;3.17;;
24421;SDS011;12600;53.326;-6.298;2023-11-18T08:38:12;20.90;;;2.65;;
24421;SDS011;12600;53.326;-6.298;2023-11-18T08:41:02;20.45;;;2.90;;
24421;SDS011;12600;53.326;-6.298;2023-11-18T08:43:54;24.05;;;3.10;;
24421;SDS011;12600;53.326;-6.298;2023-11-18T08:46:59;14.23;;;2.50;;
24421;SDS011;12600;53.326;-6.298;2023-11-18T08:49:56;23.35;;;3.40;;
24421;SDS011;12600;53.326;-6.298;2023-11-18T08:52:46;20.58;;;2.35;;
24421;SDS011;12600;53.326;-6.298;2023-11-18T08:55:35;24.52;;;3.42;;
24421;SDS011;12600;53.326;-6.298;2023-11-18T08:58:30;22.48;;;2.67;;
24421;SDS011;12600;53.326;-6.298;2023-11-18T09:01:22;17.85;;;2.45;;
24421;SDS011;12600;53.326;-6.298;2023-11-18T09:04:15;26.70;;;3.92;;
24421;SDS011;12600;53.326;-6.298;2023-11-18T09:07:07;15.68;;;3.03;;
24421;SDS011;12600;53.326;-6.298;2023-11-18T09:09:57;20.23;;;3.10;;
24421;SDS011;12600;53.326;-6.298;2023-11-18T09:12:47;16.08;;;2.33;;
24421;SDS011;12600;53.326;-6.298;2023-11-18T09:15:39;15.13;;;2.53;;
24421;SDS011;12600;53.326;-6.298;2023-11-18T09:18:31;21.90;;;2.47;;
24421;SDS011;12600;53.326;-6.298;2023-11-18T09:21:24;22.73;;;2.80;;
24421;SDS011;12600;53.326;-6.298;2023-11-18T09:24:17;16.33;;;2.70;;
24421;SDS011;12600;53.326;-6.298;2023-11-18T09:27:07;17.65;;;3.15;;
24421;SDS011;12600;53.326;-6.298;2023-11-18T09:29:56;23.70;;;2.92;;
24421;SDS011;12600;53.326;-6.298;2023-11-18T09:32:47;20.15;;;3.97;;
24421;SDS011;12600;53.326;-6.298;2023-11-18T09:35:38;15.95;;;2.53;;
24421;SDS011;12600;53.326;-6.298;2023-11-18T09:38:28;27.48;;;3.75;;
24421;SDS011;12600;53.326;-6.298;2023-11-18T09:41:18;21.15;;;2.40;;
24421;SDS011;12600;53.326;-6.298;2023-11-18T09:44:12;23.42;;;3.60;;
24421;SDS011;12600;53.326;-6.298;2023-11-18T09:47:02;23.73;;;3.40;;
24421;SDS011;12600;53.326;-6.298;2023-11-18T09:49:57;23.60;;;3.30;;
24421;SDS011;12600;53.326;-6.298;2023-11-18T09:52:52;24.55;;;2.70;;
24421;SDS011;12600;53.326;-6.298;2023-11-18T09:55:49;24.08;;;4.07;;
24421;SDS011;12600;53.326;-6.298;2023-11-18T09:58:51;28.08;;;3.40;;
24421;SDS011;12600;53.326;-6.298;2023-11-18T10:01:54;26.10;;;3.50;;
24421;SDS011;12600;53.326;-6.298;2023-11-18T10:04:47;19.70;;;2.60;;
24421;SDS011;12600;53.326;-6.298;2023-11-18T10:07:45;25.50;;;3.15;;
24421;SDS011;12600;53.326;-6.298;2023-11-18T10:10:37;18.25;;;2.55;;
24421;SDS011;12600;53.326;-6.298;2023-11-18T10:13:33;22.15;;;3.30;;
24421;SDS011;12600;53.326;-6.298;2023-11-18T10:16:27;25.10;;;3.08;;
24421;SDS011;12600;53.326;-6.298;2023-11-18T10:19:18;24.42;;;3.75;;
24421;SDS011;12600;53.326;-6.298;2023-11-18T10:22:10;26.10;;;4.13;;
24421;SDS011;12600;53.326;-6.298;2023-11-18T10:25:11;22.05;;;3.42;;
24421;SDS011;12600;53.326;-6.298;2023-11-18T10:28:22;25.20;;;3.85;;
24421;SDS011;12600;53.326;-6.298;2023-11-18T10:31:17;26.92;;;3.40;;
24421;SDS011;12600;53.326;-6.298;2023-11-18T10:34:07;29.52;;;3.75;;
24421;SDS011;12600;53.326;-6.298;2023-11-18T10:36:59;21.95;;;2.78;;
24421;SDS011;12600;53.326;-6.298;2023-11-18T10:39:50;25.17;;;3.33;;
24421;SDS011;12600;53.326;-6.298;2023-11-18T10:42:40;26.88;;;3.35;;
24421;SDS011;12600;53.326;-6.298;2023-11-18T10:45:37;27.35;;;4.25;;
24421;SDS011;12600;53.326;-6.298;2023-11-18T10:48:32;20.75;;;3.15;;
24421;SDS011;12600;53.326;-6.298;2023-11-18T10:51:21;22.13;;;2.70;;
24421;SDS011;12600;53.326;-6.298;2023-11-18T10:54:13;22.90;;;3.60;;
24421;SDS011;12600;53.326;-6.298;2023-11-18T10:57:04;17.15;;;2.50;;
24421;SDS011;12600;53.326;-6.298;2023-11-18T10:59:59;29.20;;;4.50;;
24421;SDS011;12600;53.326;-6.298;2023-11-18T11:02:58;21.23;;;3.22;;
24421;SDS011;12600;53.326;-6.298;2023-11-18T11:05:48;21.63;;;3.00;;
24421;SDS011;12600;53.326;-6.298;2023-11-18T11:08:38;21.42;;;3.22;;
24421;SDS011;12600;53.326;-6.298;2023-11-18T11:11:28;21.85;;;2.55;;
24421;SDS011;12600;53.326;-6.298;2023-11-18T11:14:25;15.48;;;2.80;;
24421;SDS011;12600;53.326;-6.298;2023-11-18T11:17:22;13.52;;;2.65;;
24421;SDS011;12600;53.326;-6.298;2023-11-18T11:20:19;12.18;;;2.15;;
24421;SDS011;12600;53.326;-6.298;2023-11-18T11:23:15;17.98;;;3.22;;
24421;SDS011;12600;53.326;-6.298;2023-11-18T11:26:13;12.68;;;2.22;;
24421;SDS011;12600;53.326;-6.298;2023-11-18T11:29:23;17.77;;;2.30;;
24421;SDS011;12600;53.326;-6.298;2023-11-18T11:32:23;20.30;;;2.50;;
24421;SDS011;12600;53.326;-6.298;2023-11-18T11:35:22;21.42;;;2.75;;
24421;SDS011;12600;53.326;-6.298;2023-11-18T11:38:18;21.40;;;4.53;;
24421;SDS011;12600;53.326;-6.298;2023-11-18T11:41:09;23.00;;;3.10;;
24421;SDS011;12600;53.326;-6.298;2023-11-18T11:44:06;27.08;;;3.40;;
24421;SDS011;12600;53.326;-6.298;2023-11-18T11:46:56;18.45;;;2.85;;
24421;SDS011;12600;53.326;-6.298;2023-11-18T11:49:50;16.83;;;2.90;;
24421;SDS011;12600;53.326;-6.298;2023-11-18T11:52:51;20.10;;;3.47;;
24421;SDS011;12600;53.326;-6.298;2023-11-18T11:55:49;27.60;;;3.40;;
24421;SDS011;12600;53.326;-6.298;2023-11-18T11:58:41;22.13;;;3.22;;
24421;SDS011;12600;53.326;-6.298;2023-11-18T12:01:32;14.38;;;2.97;;
24421;SDS011;12600;53.326;-6.298;2023-11-18T12:07:16;12.88;;;2.50;;
24421;SDS011;12600;53.326;-6.298;2023-11-18T12:10:09;22.50;;;3.38;;
24421;SDS011;12600;53.326;-6.298;2023-11-18T12:13:08;10.57;;;2.20;;
24421;SDS011;12600;53.326;-6.298;2023-11-18T12:16:04;14.85;;;2.17;;
24421;SDS011;12600;53.326;-6.298;2023-11-18T12:22:24;14.13;;;2.40;;
24421;SDS011;12600;53.326;-6.298;2023-11-18T12:28:27;18.55;;;2.65;;
24421;SDS011;12600;53.326;-6.298;2023-11-18T12:34:50;18.98;;;2.35;;
24421;SDS011;12600;53.326;-6.298;2023-11-18T12:41:25;17.20;;;2.70;;
24421;SDS011;12600;53.326;-6.298;2023-11-18T12:44:30;21.55;;;3.13;;
24421;SDS011;12600;53.326;-6.298;2023-11-18T12:47:23;14.30;;;2.55;;
24421;SDS011;12600;53.326;-6.298;2023-11-18T12:50:18;21.02;;;3.20;;
24421;SDS011;12600;53.326;-6.298;2023-11-18T12:53:12;18.67;;;2.70;;
24421;SDS011;12600;53.326;-6.298;2023-11-18T12:56:03;19.15;;;2.95;;
24421;SDS011;12600;53.326;-6.298;2023-11-18T12:58:54;23.25;;;3.25;;
24421;SDS011;12600;53.326;-6.298;2023-11-18T13:01:44;18.27;;;2.97;;
24421;SDS011;12600;53.326;-6.298;2023-11-18T13:04:41;19.83;;;2.95;;
24421;SDS011;12600;53.326;-6.298;2023-11-18T13:07:36;13.95;;;2.35;;
24421;SDS011;12600;53.326;-6.298;2023-11-18T13:10:26;17.07;;;2.80;;
24421;SDS011;12600;53.326;-6.298;2023-11-18T13:13:16;25.73;;;3.58;;
24421;SDS011;12600;53.326;-6.298;2023-11-18T13:16:07;20.05;;;3.20;;
24421;SDS011;12600;53.326;-6.298;2023-11-18T13:18:57;20.67;;;3.15;;
24421;SDS011;12600;53.326;-6.298;2023-11-18T13:21:46;23.73;;;2.90;;
24421;SDS011;12600;53.326;-6.298;2023-11-18T13:24:37;26.42;;;3.80;;
24421;SDS011;12600;53.326;-6.298;2023-11-18T13:27:28;21.58;;;3.10;;
24421;SDS011;12600;53.326;-6.298;2023-11-18T13:30:19;20.13;;;3.03;;
24421;SDS011;12600;53.326;-6.298;2023-11-18T13:33:09;25.05;;;3.75;;
24421;SDS011;12600;53.326;-6.298;2023-11-18T13:35:59;26.73;;;4.00;;
24421;SDS011;12600;53.326;-6.298;2023-11-18T13:38:51;19.80;;;3.38;;
24421;SDS011;12600;53.326;-6.298;2023-11-18T13:41:42;31.30;;;4.65;;
24421;SDS011;12600;53.326;-6.298;2023-11-18T13:44:33;26.23;;;3.50;;
24421;SDS011;12600;53.326;-6.298;2023-11-18T13:47:22;30.50;;;4.32;;
24421;SDS011;12600;53.326;-6.298;2023-11-18T13:50:12;32.50;;;3.80;;
24421;SDS011;12600;53.326;-6.298;2023-11-18T13:53:04;25.92;;;3.60;;
24421;SDS011;12600;53.326;-6.298;2023-11-18T13:55:55;35.25;;;6.10;;
24421;SDS011;12600;53.326;-6.298;2023-11-18T13:58:46;27.55;;;4.53;;
24421;SDS011;12600;53.326;-6.298;2023-11-18T14:01:37;32.10;;;4.00;;
24421;SDS011;12600;53.326;-6.298;2023-11-18T14:04:26;32.28;;;4.00;;
24421;SDS011;12600;53.326;-6.298;2023-11-18T14:07:17;31.45;;;4.40;;
24421;SDS011;12600;53.326;-6.298;2023-11-18T14:10:07;26.15;;;4.47;;
24421;SDS011;12600;53.326;-6.298;2023-11-18T14:13:00;27.33;;;4.15;;
24421;SDS011;12600;53.326;-6.298;2023-11-18T14:18:44;37.65;;;6.00;;
24421;SDS011;12600;53.326;-6.298;2023-11-18T14:21:35;31.58;;;3.95;;
24421;SDS011;12600;53.326;-6.298;2023-11-18T14:24:24;41.90;;;5.30;;
24421;SDS011;12600;53.326;-6.298;2023-11-18T14:27:15;29.25;;;5.15;;
24421;SDS011;12600;53.326;-6.298;2023-11-18T14:30:04;24.77;;;3.80;;
24421;SDS011;12600;53.326;-6.298;2023-11-18T14:32:58;32.35;;;5.85;;
24421;SDS011;12600;53.326;-6.298;2023-11-18T14:35:47;24.58;;;4.03;;
24421;SDS011;12600;53.326;-6.298;2023-11-18T14:38:37;31.17;;;4.22;;
24421;SDS011;12600;53.326;-6.298;2023-11-18T14:41:26;30.65;;;5.38;;
24421;SDS011;12600;53.326;-6.298;2023-11-18T14:44:18;29.52;;;5.15;;
24421;SDS011;12600;53.326;-6.298;2023-11-18T14:47:07;31.80;;;5.88;;
24421;SDS011;12600;53.326;-6.298;2023-11-18T14:49:59;25.70;;;3.83;;
24421;SDS011;12600;53.326;-6.298;2023-11-18T14:52:50;25.90;;;3.83;;
24421;SDS011;12600;53.326;-6.298;2023-11-18T14:55:46;26.35;;;4.55;;
24421;SDS011;12600;53.326;-6.298;2023-11-18T14:58:36;34.25;;;4.43;;
24421;SDS011;12600;53.326;-6.298;2023-11-18T15:01:25;31.02;;;4.72;;
24421;SDS011;12600;53.326;-6.298;2023-11-18T15:04:16;33.92;;;5.18;;
24421;SDS011;12600;53.326;-6.298;2023-11-18T15:07:07;35.03;;;5.00;;
24421;SDS011;12600;53.326;-6.298;2023-11-18T15:09:56;35.78;;;5.57;;
24421;SDS011;12600;53.326;-6.298;2023-11-18T15:12:46;28.80;;;6.47;;
24421;SDS011;12600;53.326;-6.298;2023-11-18T15:15:40;32.25;;;5.05;;
24421;SDS011;12600;53.326;-6.298;2023-11-18T15:18:30;26.95;;;5.32;;
24421;SDS011;12600;53.326;-6.298;2023-11-18T15:21:19;28.17;;;5.07;;
24421;SDS011;12600;53.326;-6.298;2023-11-18T15:24:10;28.60;;;5.25;;
24421;SDS011;12600;53.326;-6.298;2023-11-18T15:27:01;25.98;;;5.30;;
24421;SDS011;12600;53.326;-6.298;2023-11-18T15:29:51;25.55;;;5.03;;
24421;SDS011;12600;53.326;-6.298;2023-11-18T15:32:40;24.42;;;4.38;;
24421;SDS011;12600;53.326;-6.298;2023-11-18T15:35:31;29.20;;;7.38;;
24421;SDS011;12600;53.326;-6.298;2023-11-18T15:38:20;29.67;;;5.65;;
24421;SDS011;12600;53.326;-6.298;2023-11-18T15:41:13;21.67;;;3.03;;
24421;SDS011;12600;53.326;-6.298;2023-11-18T15:44:03;15.23;;;2.70;;
24421;SDS011;12600;53.326;-6.298;2023-11-18T15:46:53;16.20;;;4.72;;
24421;SDS011;12600;53.326;-6.298;2023-11-18T15:49:43;26.98;;;4.20;;
24421;SDS011;12600;53.326;-6.298;2023-11-18T15:52:33;20.63;;;3.05;;
24421;SDS011;12600;53.326;-6.298;2023-11-18T15:55:23;30.65;;;4.07;;
24421;SDS011;12600;53.326;-6.298;2023-11-18T15:58:15;27.48;;;4.75;;
24421;SDS011;12600;53.326;-6.298;2023-11-18T16:01:06;33.47;;;6.03;;
24421;SDS011;12600;53.326;-6.298;2023-11-18T16:03:57;23.70;;;3.25;;
24421;SDS011;12600;53.326;-6.298;2023-11-18T16:06:46;21.85;;;3.97;;
24421;SDS011;12600;53.326;-6.298;2023-11-18T16:09:35;55.33;;;14.18;;
24421;SDS011;12600;53.326;-6.298;2023-11-18T16:12:25;32.08;;;8.85;;
24421;SDS011;12600;53.326;-6.298;2023-11-18T16:15:17;29.80;;;6.80;;
24421;SDS011;12600;53.326;-6.298;2023-11-18T16:18:07;34.03;;;9.55;;
24421;SDS011;12600;53.326;-6.298;2023-11-18T16:20:57;30.10;;;6.15;;
24421;SDS011;12600;53.326;-6.298;2023-11-18T16:23:49;21.70;;;5.47;;
24421;SDS011;12600;53.326;-6.298;2023-11-18T16:26:39;30.58;;;6.65;;
24421;SDS011;12600;53.326;-6.298;2023-11-18T16:29:31;25.42;;;4.70;;
24421;SDS011;12600;53.326;-6.298;2023-11-18T16:32:22;30.13;;;4.90;;
24421;SDS011;12600;53.326;-6.298;2023-11-18T16:35:11;27.45;;;5.32;;
24421;SDS011;12600;53.326;-6.298;2023-11-18T16:38:01;22.45;;;4.65;;
24421;SDS011;12600;53.326;-6.298;2023-11-18T16:40:50;28.05;;;5.97;;
24421;SDS011;12600;53.326;-6.298;2023-11-18T16:43:40;24.20;;;5.38;;
24421;SDS011;12600;53.326;-6.298;2023-11-18T16:46:29;33.25;;;7.63;;
24421;SDS011;12600;53.326;-6.298;2023-11-18T16:49:20;33.22;;;7.45;;
24421;SDS011;12600;53.326;-6.298;2023-11-18T16:52:11;28.37;;;6.87;;
24421;SDS011;12600;53.326;-6.298;2023-11-18T16:55:00;41.15;;;9.85;;
24421;SDS011;12600;53.326;-6.298;2023-11-18T16:57:50;26.25;;;7.15;;
24421;SDS011;12600;53.326;-6.298;2023-11-18T17:00:41;31.73;;;7.65;;
24421;SDS011;12600;53.326;-6.298;2023-11-18T17:03:31;28.73;;;8.55;;
24421;SDS011;12600;53.326;-6.298;2023-11-18T17:06:24;18.05;;;3.88;;